Latest Weather Observations for Yarrawonga

IDN60801

Issued at 11:35 am EST Friday 19 September 2014 (issued every 30 minutes, with the page automatically refreshed every 10 minutes)

About weather observations | Map of weather stations | Latest weather observations for NSW | Other Formats
Station Details ID: 081124 Name: YARRAWONGA Lat: -36.03 Lon: 146.03 Height: 128.9 m
Data from the previous 72 hours. | See also: Recent months at Yarrawonga
Date/Time
EST
Temp
°C
App
Temp
°C
Dew
Point
Rel
Hum
%
Delta-T
°C
Wind Press
QNH
hPa
Press
MSL
hPa
Rain
since 9 am
mm
Dir
 
Spd
km/h
Gust
km/h
Spd
kts
Gust
kts
19/11:30am 14.5 9.4 4.2 50 4.7 SSW 20 32 11 17 1023.6 1023.6 0.0
19/11:00am 14.1 9.1 4.4 52 4.5 S 20 32 11 17 1023.9 1023.9 0.0
19/10:30am 13.1 8.2 4.3 55 4.0 SSW 19 30 10 16 1024.4 1024.4 0.0
19/10:00am 12.8 7.9 4.3 56 3.9 SSW 19 30 10 16 1024.6 1024.6 0.0
19/09:30am 11.8 7.4 5.0 63 3.1 S 17 20 9 11 1024.7 1024.8 0.0
19/09:00am 10.3 7.4 6.3 76 1.9 S 11 15 6 8 1024.7 1024.8 0.0
19/08:30am 8.6 6.4 6.1 84 1.2 S 7 15 4 8 1024.6 1024.6 0.0
19/08:00am 6.6 4.0 6.3 98 0.1 SSW 9 13 5 7 1024.5 1024.5 0.0
19/07:30am 3.9 1.2 3.6 98 0.1 SSW 7 9 4 5 1024.3 1024.3 0.0
19/07:00am 2.2 -0.8 1.9 98 0.1 SW 7 9 4 5 1024.3 1024.3 0.0
19/06:30am 0.7 -3.3 0.4 98 0.1 WSW 11 13 6 7 1024.0 1024.0 0.0
19/06:00am -0.1 -3.5 -0.4 98 0.1 WSW 7 9 4 5 1023.8 1023.8 0.0
19/05:30am 0.9 -2.3 0.6 98 0.1 W 7 9 4 5 1023.5 1023.5 0.0
19/05:00am 0.4 -2.9 0.1 98 0.1 WSW 7 9 4 5 1023.1 1023.1 0.0
19/04:30am 0.9 -2.7 0.6 98 0.1 WSW 9 11 5 6 1022.8 1022.9 0.0
19/04:00am 1.8 -2.4 1.5 98 0.1 WSW 13 15 7 8 1022.8 1022.9 0.0
19/03:30am 1.9 -1.5 1.6 98 0.1 WSW 9 11 5 6 1022.7 1022.8 0.0
19/03:00am 2.5 -0.8 2.2 98 0.1 SSW 9 15 5 8 1022.6 1022.7 0.0
19/02:30am 1.6 -3.0 1.3 98 0.1 SSW 15 15 8 8 1022.6 1022.7 0.0
19/02:00am 0.9 -2.7 0.6 98 0.1 SW 9 11 5 6 1023.2 1023.2 0.0
19/01:30am 1.9 -1.5 1.6 98 0.1 WSW 9 11 5 6 1023.5 1023.5 0.0
19/01:00am 1.6 -1.9 1.3 98 0.1 SW 9 9 5 5 1023.7 1023.7 0.0
19/12:30am 3.0 0.3 2.7 98 0.1 W 6 7 3 4 1023.8 1023.8 0.0
19/12:00am 2.9 0.6 2.6 98 0.1 SW 4 6 2 3 1023.8 1023.8 0.0
 
Date/Time
EST
Temp
°C
App
Temp
°C
Dew
Point
Rel
Hum
%
Delta-T
°C
Wind Press
QNH
hPa
Press
MSL
hPa
Rain
since 9 am
mm
Dir
 
Spd
km/h
Gust
km/h
Spd
kts
Gust
kts
18/11:30pm 3.1 0.2 2.7 97 0.2 WSW 7 11 4 6 1023.8 1023.8 0.0
18/11:00pm 4.0 0.0 3.1 94 0.4 SW 13 15 7 8 1023.9 1023.9 0.0
18/10:30pm 4.5 2.0 3.5 93 0.4 WSW 6 6 3 3 1023.9 1023.9 0.0
18/10:00pm 4.2 1.0 3.3 94 0.4 SW 9 9 5 5 1023.9 1023.9 0.0
18/09:30pm 4.2 1.4 2.9 91 0.5 SSW 7 9 4 5 1023.7 1023.7 0.0
18/09:00pm 5.0 2.4 3.2 88 0.7 SW 6 7 3 4 1023.7 1023.7 0.0
18/08:30pm 5.3 2.5 3.3 87 0.8 SW 7 7 4 4 1023.5 1023.5 0.0
18/08:00pm 5.9 2.8 3.7 86 0.9 SSW 9 11 5 6 1023.4 1023.4 0.0
18/07:30pm 6.6 3.9 3.9 83 1.2 SSW 7 9 4 5 1023.2 1023.2 0.0
18/07:00pm 7.3 4.3 3.9 79 1.5 SSW 9 9 5 5 1022.8 1022.9 0.0
18/06:30pm 8.1 4.7 3.9 75 1.8 SW 11 13 6 7 1022.5 1022.6 0.0
18/06:00pm 10.6 7.2 4.1 64 2.9 SSW 11 15 6 8 1022.3 1022.4 0.0
18/05:30pm 12.1 7.8 5.3 63 3.2 SSW 17 26 9 14 1022.1 1022.2 0.0
18/05:00pm 13.5 8.5 3.6 51 4.5 SSW 19 32 10 17 1021.6 1021.7 0.0
18/04:30pm 14.2 9.1 3.9 50 4.7 SW 20 28 11 15 1021.4 1021.5 0.0
18/04:00pm 14.3 9.8 5.9 57 4.0 SSW 19 26 10 14 1021.4 1021.5 0.0
18/03:30pm 15.2 10.4 4.9 50 4.9 SW 19 26 10 14 1021.4 1021.5 0.0
18/03:00pm 14.4 9.6 4.7 52 4.5 SW 19 24 10 13 1021.4 1021.5 0.0
18/02:30pm 14.9 10.0 4.9 51 4.7 SW 20 30 11 16 1021.5 1021.6 0.0
18/02:00pm 13.9 9.0 5.0 55 4.2 WSW 20 26 11 14 1021.5 1021.6 0.0
18/01:30pm 13.1 7.8 4.8 57 3.9 SW 22 32 12 17 1021.8 1021.9 0.0
18/01:00pm 13.4 8.5 5.1 57 3.9 WSW 20 26 11 14 1021.9 1022.0 0.0
18/12:30pm 12.5 7.7 4.7 59 3.6 SSW 19 26 10 14 1022.2 1022.3 0.0
18/12:00pm 12.9 8.1 4.6 57 3.8 SW 19 26 10 14 1022.2 1022.3 0.0
18/11:30am 12.4 7.9 4.1 57 3.8 SW 17 33 9 18 1022.5 1022.6 0.0
18/11:00am 12.7 8.1 5.4 61 3.4 SW 19 32 10 17 1022.6 1022.7 0.0
18/10:30am 11.5 6.7 4.5 62 3.2 SW 19 30 10 16 1022.8 1022.9 0.0
18/10:00am 11.6 7.0 5.5 66 2.8 WSW 19 26 10 14 1022.9 1023.0 0.0
18/09:30am 10.3 5.5 5.7 73 2.1 WSW 20 26 11 14 1022.9 1023.0 0.0
18/09:00am 9.2 5.1 6.3 82 1.3 WSW 17 26 9 14 1022.8 1022.9 0.0
18/08:30am 7.6 3.5 6.2 91 0.6 WSW 17 24 9 13 1022.5 1022.6 0.0
18/08:00am 4.9 2.4 4.6 98 0.1 WSW 7 13 4 7 1022.5 1022.6 0.0
18/07:30am 3.3 1.8 3.0 98 0.1 CALM 0 0 0 0 1022.3 1022.4 0.0
18/07:00am 1.7 -0.1 1.4 98 0.1 CALM 0 0 0 0 1021.9 1022.0 0.0
18/06:30am 1.1 -1.1 0.8 98 0.1 WSW 2 4 1 2 1021.6 1021.7 0.0
18/06:00am 0.6 -2.1 0.3 98 0.1 SSW 4 4 2 2 1021.2 1021.3 0.0
18/05:30am 0.8 -1.9 0.5 98 0.1 S 4 4 2 2 1020.9 1021.0 0.0
18/05:00am 1.6 -1.5 1.3 98 0.1 SW 7 7 4 4 1020.7 1020.8 0.0
18/04:30am 2.9 -0.8 2.6 98 0.1 W 11 15 6 8 1020.3 1020.4 0.0
18/04:00am 3.0 -0.6 2.7 98 0.1 W 11 13 6 7 1020.0 1020.1 0.0
18/03:30am 3.3 -0.3 2.7 96 0.2 W 11 13 6 7 1019.9 1020.0 0.0
18/03:00am 3.4 -0.3 2.5 94 0.4 W 11 13 6 7 1020.0 1020.1 0.0
18/02:30am 3.5 0.3 3.2 98 0.1 W 9 13 5 7 1019.9 1020.0 0.0
18/02:00am 3.2 -0.4 2.8 97 0.2 WSW 11 13 6 7 1019.9 1020.0 0.0
18/01:30am 3.3 0.1 2.9 97 0.2 WSW 9 9 5 5 1019.9 1020.0 0.0
18/01:00am 4.0 0.5 3.6 97 0.2 W 11 13 6 7 1020.1 1020.2 0.0
18/12:30am 4.2 0.4 3.8 97 0.2 WSW 13 15 7 8 1020.1 1020.2 0.0
18/12:00am 4.4 1.0 4.0 97 0.2 WSW 11 15 6 8 1020.0 1020.1 0.0
 
Date/Time
EST
Temp
°C
App
Temp
°C
Dew
Point
Rel
Hum
%
Delta-T
°C
Wind Press
QNH
hPa
Press
MSL
hPa
Rain
since 9 am
mm
Dir
 
Spd
km/h
Gust
km/h
Spd
kts
Gust
kts
17/11:30pm 5.0 2.5 4.6 97 0.2 W 7 11 4 6 1019.8 1019.9 0.0
17/11:00pm 4.8 1.4 3.9 94 0.4 WSW 11 13 6 7 1019.6 1019.7 0.0
17/10:30pm 5.3 2.2 3.8 90 0.6 WSW 9 11 5 6 1019.4 1019.5 0.0
17/10:00pm 6.7 3.3 4.2 84 1.1 SW 11 15 6 8 1019.2 1019.3 0.0
17/09:30pm 7.7 3.6 4.3 79 1.5 SSW 15 19 8 10 1018.8 1018.9 0.0
17/09:00pm 8.5 3.7 4.7 77 1.7 SSW 19 24 10 13 1018.4 1018.5 0.0
17/08:30pm 8.6 3.8 4.8 77 1.7 SSW 19 24 10 13 1018.4 1018.5 0.0
17/08:00pm 9.5 4.3 3.7 67 2.5 SSW 20 26 11 14 1017.8 1017.8 0.0
17/07:30pm 8.9 4.5 2.7 65 2.6 SW 15 19 8 10 1017.2 1017.2 0.0
17/07:00pm 10.1 5.8 3.4 63 2.9 WSW 15 20 8 11 1016.7 1016.7 0.0
17/06:30pm 10.6 6.4 3.9 63 3.0 SW 15 20 8 11 1016.4 1016.4 0.0
17/06:00pm 12.6 7.6 3.8 55 4.0 SW 19 26 10 14 1016.0 1016.0 0.0
17/05:30pm 14.2 8.7 3.9 50 4.7 WSW 22 32 12 17 1015.7 1015.7 0.0
17/05:00pm 15.1 9.4 5.0 51 4.8 WSW 24 33 13 18 1015.3 1015.3 0.0
17/04:30pm 15.5 9.0 4.6 48 5.1 WSW 28 37 15 20 1014.8 1014.9 0.0
17/04:00pm 14.7 9.0 4.7 51 4.7 WSW 24 32 13 17 1014.6 1014.7 0.0
17/03:30pm 16.8 10.5 3.8 42 6.1 W 26 35 14 19 1014.4 1014.5 0.0
17/03:00pm 17.0 10.9 4.7 44 5.9 W 26 39 14 21 1014.3 1014.4 0.0
17/02:30pm 15.4 8.0 3.9 46 5.3 W 32 46 17 25 1014.4 1014.5 0.0
17/02:00pm 16.7 9.9 5.0 46 5.6 WSW 30 37 16 20 1014.3 1014.4 0.0
17/01:30pm 15.8 9.1 5.7 51 4.9 W 30 43 16 23 1014.4 1014.5 0.0
17/01:00pm 15.6 8.8 5.2 50 5.0 W 30 41 16 22 1014.5 1014.6 0.0
17/12:30pm 14.6 8.7 5.7 55 4.3 WSW 26 35 14 19 1014.6 1014.7 0.0
17/12:00pm 14.8 8.9 5.9 55 4.3 WSW 26 35 14 19 1014.8 1014.9 0.0
17/11:30am 14.7 9.0 6.5 58 4.0 WSW 26 37 14 20 1014.8 1014.9 0.0
17/11:00am 14.1 8.7 6.5 60 3.7 W 24 35 13 19 1015.1 1015.1 0.0
17/10:30am 13.2 9.3 8.5 73 2.4 WSW 19 26 10 14 1015.3 1015.3 0.0
17/10:00am 12.0 7.4 8.1 77 1.9 WSW 22 28 12 15 1015.5 1015.5 0.0
17/09:30am 12.5 8.7 9.0 79 1.8 W 19 24 10 13 1015.4 1015.4 0.0
17/09:00am 11.6 8.0 8.5 81 1.5 W 17 22 9 12 1015.3 1015.3 0.0
17/08:30am 10.6 8.1 8.2 85 1.2 W 11 15 6 8 1015.3 1015.3 0.0
17/08:00am 9.5 6.8 7.4 87 1.0 WSW 11 15 6 8 1015.3 1015.3 0.0
17/07:30am 8.6 6.2 7.2 91 0.7 W 9 13 5 7 1014.8 1014.9 0.0
17/07:00am 7.1 5.2 6.8 98 0.1 W 6 9 3 5 1014.7 1014.8 0.0
17/06:30am 6.4 3.4 6.1 98 0.1 W 11 15 6 8 1014.7 1014.8 0.0
17/06:00am 6.2 4.5 5.9 98 0.1 SSW 4 6 2 3 1014.2 1014.3 0.0
17/05:30am 6.8 4.9 6.5 98 0.1 WSW 6 9 3 5 1014.1 1014.2 0.0
17/05:00am 6.6 3.7 6.3 98 0.1 W 11 15 6 8 1014.2 1014.3 0.0
17/04:30am 7.0 3.7 6.6 97 0.2 W 13 17 7 9 1014.0 1014.1 0.0
17/04:00am 7.3 4.1 7.0 98 0.1 W 13 17 7 9 1013.7 1013.8 0.0
17/03:30am 7.2 4.4 6.9 98 0.1 W 11 15 6 8 1013.4 1013.5 0.0
17/03:00am 6.5 3.9 6.2 98 0.1 W 9 11 5 6 1013.3 1013.4 0.0
17/02:30am 6.1 3.1 5.8 98 0.1 W 11 15 6 8 1013.4 1013.5 0.0
17/02:00am 6.3 3.3 6.0 98 0.1 W 11 15 6 8 1013.2 1013.3 0.0
17/01:30am 7.0 4.1 6.7 98 0.1 W 11 15 6 8 1013.3 1013.4 0.0
17/01:00am 7.2 5.2 6.9 98 0.1 W 7 9 4 5 1013.3 1013.4 0.0
17/12:30am 6.8 4.7 6.5 98 0.1 W 7 9 4 5 1013.3 1013.4 0.0
17/12:00am 6.7 4.7 6.4 98 0.1 W 6 7 3 4 1013.2 1013.3 0.0
 
Date/Time
EST
Temp
°C
App
Temp
°C
Dew
Point
Rel
Hum
%
Delta-T
°C
Wind Press
QNH
hPa
Press
MSL
hPa
Rain
since 9 am
mm
Dir
 
Spd
km/h
Gust
km/h
Spd
kts
Gust
kts
16/11:30pm 7.3 5.5 7.0 98 0.1 WSW 6 7 3 4 1013.3 1013.4 0.0
16/11:00pm 8.3 5.8 8.0 98 0.1 WSW 11 13 6 7 1013.5 1013.6 0.0
16/10:30pm 8.9 6.5 8.6 98 0.1 WSW 11 15 6 8 1013.4 1013.5 0.0
16/10:00pm 9.6 6.9 9.0 96 0.3 WSW 13 15 7 8 1013.4 1013.5 0.0
16/09:30pm 11.1 8.5 9.2 88 1.0 WSW 13 17 7 9 1013.0 1013.1 0.0
16/09:00pm 11.1 8.0 9.0 87 1.1 WSW 15 19 8 10 1012.9 1013.0 0.0
16/08:30pm 11.8 8.8 9.2 84 1.3 SW 15 20 8 11 1012.7 1012.8 0.0
16/08:00pm 12.8 8.5 9.3 79 1.8 SW 22 32 12 17 1012.4 1012.5 0.0
16/07:30pm 13.2 9.5 9.6 79 1.9 WSW 19 26 10 14 1012.1 1012.2 0.0
16/07:00pm 13.8 10.3 10.8 82 1.6 WSW 20 28 11 15 1011.6 1011.7 0.0
16/06:30pm 14.3 10.6 11.6 84 1.5 WSW 22 32 12 17 1011.1 1011.1 0.0
16/06:00pm 13.7 11.0 11.8 88 1.0 WSW 17 20 9 11 1010.6 1010.6 0.0
16/05:30pm 14.6 11.5 11.7 83 1.6 WSW 19 24 10 13 1010.1 1010.1 0.0
16/05:00pm 15.4 11.6 11.2 76 2.3 WSW 22 32 12 17 1009.8 1009.8 0.0
16/04:30pm 16.5 12.5 10.6 68 3.2 WSW 22 30 12 16 1009.3 1009.3 0.0
16/04:00pm 16.9 13.8 11.6 71 2.9 W 19 24 10 13 1009.0 1009.0 0.0
16/03:30pm 17.2 14.6 11.9 71 2.9 WNW 17 22 9 12 1008.7 1008.7 0.0
16/03:00pm 17.1 14.9 10.7 66 3.5 WNW 13 17 7 9 1008.6 1008.6 0.0
16/02:30pm 18.4 16.3 11.0 62 4.0 W 13 19 7 10 1008.6 1008.6 0.0
16/02:00pm 17.1 14.5 10.7 66 3.5 W 15 20 8 11 1008.7 1008.7 0.0
16/01:30pm 17.0 15.1 10.6 66 3.4 WNW 11 19 6 10 1008.8 1008.8 0.0
16/01:00pm 16.9 13.4 11.0 68 3.2 W 20 26 11 14 1008.8 1008.8 0.0
16/12:30pm 16.2 14.9 11.2 72 2.7 NNW 9 17 5 9 1008.8 1008.8 0.0
16/12:00pm 16.1 14.8 11.1 72 2.7 W 9 15 5 8 1009.0 1009.0 0.0

Other Formats:

Comma delimited format used in spreadsheet applications
http://www.bom.gov.au/fwo/IDN60801/IDN60801.94862.axf

JavaScript Object Notation format (JSON) in row-major order
http://www.bom.gov.au/fwo/IDN60801/IDN60801.94862.json